sensor_id;sensor_type;location;lat;lon;timestamp;P1;durP1;ratioP1;P2;durP2;ratioP2
75386;SDS011;63966;47.914;22.266;2022-10-16T00:00:57;51.15;;;26.05;;
75386;SDS011;63966;47.914;22.266;2022-10-16T00:04:01;45.35;;;22.20;;
75386;SDS011;63966;47.914;22.266;2022-10-16T00:07:04;42.07;;;21.67;;
75386;SDS011;63966;47.914;22.266;2022-10-16T00:10:08;41.97;;;21.50;;
75386;SDS011;63966;47.914;22.266;2022-10-16T00:13:11;43.05;;;20.27;;
75386;SDS011;63966;47.914;22.266;2022-10-16T00:16:16;32.90;;;15.60;;
75386;SDS011;63966;47.914;22.266;2022-10-16T00:19:20;30.88;;;16.17;;
75386;SDS011;63966;47.914;22.266;2022-10-16T00:22:23;35.13;;;17.77;;
75386;SDS011;63966;47.914;22.266;2022-10-16T00:25:27;34.67;;;15.63;;
75386;SDS011;63966;47.914;22.266;2022-10-16T00:28:30;36.28;;;17.77;;
75386;SDS011;63966;47.914;22.266;2022-10-16T00:31:34;31.58;;;15.52;;
75386;SDS011;63966;47.914;22.266;2022-10-16T00:34:37;35.20;;;18.17;;
75386;SDS011;63966;47.914;22.266;2022-10-16T00:37:42;35.80;;;19.17;;
75386;SDS011;63966;47.914;22.266;2022-10-16T00:40:45;36.47;;;19.07;;
75386;SDS011;63966;47.914;22.266;2022-10-16T00:43:52;42.10;;;21.40;;
75386;SDS011;63966;47.914;22.266;2022-10-16T00:47:02;46.25;;;22.08;;
75386;SDS011;63966;47.914;22.266;2022-10-16T00:50:07;34.60;;;18.42;;
75386;SDS011;63966;47.914;22.266;2022-10-16T00:53:11;39.37;;;19.07;;
75386;SDS011;63966;47.914;22.266;2022-10-16T00:56:14;40.77;;;19.60;;
75386;SDS011;63966;47.914;22.266;2022-10-16T00:59:19;37.15;;;17.58;;
75386;SDS011;63966;47.914;22.266;2022-10-16T01:02:28;31.15;;;16.35;;
75386;SDS011;63966;47.914;22.266;2022-10-16T01:05:51;36.47;;;17.00;;
75386;SDS011;63966;47.914;22.266;2022-10-16T01:16:16;34.80;;;17.90;;
75386;SDS011;63966;47.914;22.266;2022-10-16T01:23:07;33.30;;;16.55;;
75386;SDS011;63966;47.914;22.266;2022-10-16T01:29:54;31.17;;;16.33;;
75386;SDS011;63966;47.914;22.266;2022-10-16T01:33:01;30.88;;;16.10;;
75386;SDS011;63966;47.914;22.266;2022-10-16T01:36:18;32.67;;;16.10;;
75386;SDS011;63966;47.914;22.266;2022-10-16T01:39:29;33.08;;;16.80;;
75386;SDS011;63966;47.914;22.266;2022-10-16T01:42:35;32.63;;;16.57;;
75386;SDS011;63966;47.914;22.266;2022-10-16T01:46:05;29.23;;;15.00;;
75386;SDS011;63966;47.914;22.266;2022-10-16T01:49:10;28.15;;;14.25;;
75386;SDS011;63966;47.914;22.266;2022-10-16T01:52:16;30.98;;;14.77;;
75386;SDS011;63966;47.914;22.266;2022-10-16T01:55:28;26.85;;;14.23;;
75386;SDS011;63966;47.914;22.266;2022-10-16T01:58:40;28.43;;;14.67;;
75386;SDS011;63966;47.914;22.266;2022-10-16T02:02:05;28.70;;;13.90;;
75386;SDS011;63966;47.914;22.266;2022-10-16T02:08:18;27.33;;;14.63;;
75386;SDS011;63966;47.914;22.266;2022-10-16T02:11:23;31.42;;;16.55;;
75386;SDS011;63966;47.914;22.266;2022-10-16T02:14:27;29.20;;;15.07;;
75386;SDS011;63966;47.914;22.266;2022-10-16T02:17:31;30.23;;;16.50;;
75386;SDS011;63966;47.914;22.266;2022-10-16T02:20:40;30.30;;;15.55;;
75386;SDS011;63966;47.914;22.266;2022-10-16T02:24:02;28.98;;;15.65;;
75386;SDS011;63966;47.914;22.266;2022-10-16T02:27:10;25.10;;;13.82;;
75386;SDS011;63966;47.914;22.266;2022-10-16T02:33:28;29.27;;;15.60;;
75386;SDS011;63966;47.914;22.266;2022-10-16T02:36:34;27.70;;;14.93;;
75386;SDS011;63966;47.914;22.266;2022-10-16T02:39:39;24.85;;;13.20;;
75386;SDS011;63966;47.914;22.266;2022-10-16T02:42:43;25.45;;;12.43;;
75386;SDS011;63966;47.914;22.266;2022-10-16T02:45:46;23.60;;;13.07;;
75386;SDS011;63966;47.914;22.266;2022-10-16T02:48:50;32.73;;;16.27;;
75386;SDS011;63966;47.914;22.266;2022-10-16T02:51:53;32.78;;;17.65;;
75386;SDS011;63966;47.914;22.266;2022-10-16T02:54:56;37.15;;;17.17;;
75386;SDS011;63966;47.914;22.266;2022-10-16T02:58:00;36.35;;;18.55;;
75386;SDS011;63966;47.914;22.266;2022-10-16T03:01:03;41.00;;;19.03;;
75386;SDS011;63966;47.914;22.266;2022-10-16T03:04:07;45.53;;;20.87;;
75386;SDS011;63966;47.914;22.266;2022-10-16T03:07:11;32.25;;;16.30;;
75386;SDS011;63966;47.914;22.266;2022-10-16T03:10:14;31.55;;;17.52;;
75386;SDS011;63966;47.914;22.266;2022-10-16T03:13:18;25.92;;;13.30;;
75386;SDS011;63966;47.914;22.266;2022-10-16T03:16:22;24.30;;;13.13;;
75386;SDS011;63966;47.914;22.266;2022-10-16T03:19:25;23.87;;;12.37;;
75386;SDS011;63966;47.914;22.266;2022-10-16T03:22:29;27.30;;;13.80;;
75386;SDS011;63966;47.914;22.266;2022-10-16T03:25:32;32.83;;;16.95;;
75386;SDS011;63966;47.914;22.266;2022-10-16T03:28:36;27.08;;;14.30;;
75386;SDS011;63966;47.914;22.266;2022-10-16T03:31:39;27.73;;;15.83;;
75386;SDS011;63966;47.914;22.266;2022-10-16T03:34:43;28.90;;;14.50;;
75386;SDS011;63966;47.914;22.266;2022-10-16T03:37:46;32.25;;;15.95;;
75386;SDS011;63966;47.914;22.266;2022-10-16T03:40:49;100.13;;;28.00;;
75386;SDS011;63966;47.914;22.266;2022-10-16T03:43:53;67.55;;;21.52;;
75386;SDS011;63966;47.914;22.266;2022-10-16T03:46:56;57.97;;;20.97;;
75386;SDS011;63966;47.914;22.266;2022-10-16T03:49:59;51.97;;;15.87;;
75386;SDS011;63966;47.914;22.266;2022-10-16T03:53:03;51.20;;;19.00;;
75386;SDS011;63966;47.914;22.266;2022-10-16T03:56:06;57.45;;;19.90;;
75386;SDS011;63966;47.914;22.266;2022-10-16T03:59:10;57.53;;;22.73;;
75386;SDS011;63966;47.914;22.266;2022-10-16T04:02:13;63.67;;;21.07;;
75386;SDS011;63966;47.914;22.266;2022-10-16T04:05:17;57.90;;;22.60;;
75386;SDS011;63966;47.914;22.266;2022-10-16T04:08:20;68.70;;;20.08;;
75386;SDS011;63966;47.914;22.266;2022-10-16T04:11:24;65.32;;;21.05;;
75386;SDS011;63966;47.914;22.266;2022-10-16T04:14:27;63.13;;;19.50;;
75386;SDS011;63966;47.914;22.266;2022-10-16T04:17:31;46.47;;;19.10;;
75386;SDS011;63966;47.914;22.266;2022-10-16T04:20:35;52.23;;;19.10;;
75386;SDS011;63966;47.914;22.266;2022-10-16T04:23:39;57.92;;;18.83;;
75386;SDS011;63966;47.914;22.266;2022-10-16T04:26:42;57.88;;;20.02;;
75386;SDS011;63966;47.914;22.266;2022-10-16T04:29:45;40.67;;;14.65;;
75386;SDS011;63966;47.914;22.266;2022-10-16T04:32:52;51.60;;;17.77;;
75386;SDS011;63966;47.914;22.266;2022-10-16T04:36:00;53.87;;;20.13;;
75386;SDS011;63966;47.914;22.266;2022-10-16T04:39:04;53.22;;;19.23;;
75386;SDS011;63966;47.914;22.266;2022-10-16T04:42:08;44.67;;;16.58;;
75386;SDS011;63966;47.914;22.266;2022-10-16T04:45:11;36.13;;;16.73;;
75386;SDS011;63966;47.914;22.266;2022-10-16T04:48:18;34.93;;;15.60;;
75386;SDS011;63966;47.914;22.266;2022-10-16T04:51:21;32.97;;;14.87;;
75386;SDS011;63966;47.914;22.266;2022-10-16T04:54:25;37.75;;;17.05;;
75386;SDS011;63966;47.914;22.266;2022-10-16T04:57:29;36.22;;;15.38;;
75386;SDS011;63966;47.914;22.266;2022-10-16T05:00:33;39.72;;;15.80;;
75386;SDS011;63966;47.914;22.266;2022-10-16T05:03:36;48.03;;;15.33;;
75386;SDS011;63966;47.914;22.266;2022-10-16T05:06:40;32.30;;;14.85;;
75386;SDS011;63966;47.914;22.266;2022-10-16T05:09:44;36.72;;;14.88;;
75386;SDS011;63966;47.914;22.266;2022-10-16T05:12:48;41.92;;;14.50;;
75386;SDS011;63966;47.914;22.266;2022-10-16T05:15:51;30.27;;;14.50;;
75386;SDS011;63966;47.914;22.266;2022-10-16T05:18:55;24.13;;;13.50;;
75386;SDS011;63966;47.914;22.266;2022-10-16T05:22:18;21.43;;;12.40;;
75386;SDS011;63966;47.914;22.266;2022-10-16T05:25:22;23.05;;;13.02;;
75386;SDS011;63966;47.914;22.266;2022-10-16T05:28:27;24.35;;;13.85;;
75386;SDS011;63966;47.914;22.266;2022-10-16T05:31:33;20.05;;;12.23;;
75386;SDS011;63966;47.914;22.266;2022-10-16T05:34:36;21.07;;;12.77;;
75386;SDS011;63966;47.914;22.266;2022-10-16T05:37:39;23.43;;;14.33;;
75386;SDS011;63966;47.914;22.266;2022-10-16T05:40:43;23.80;;;14.73;;
75386;SDS011;63966;47.914;22.266;2022-10-16T05:43:53;27.98;;;15.48;;
75386;SDS011;63966;47.914;22.266;2022-10-16T05:46:56;24.42;;;15.35;;
75386;SDS011;63966;47.914;22.266;2022-10-16T05:50:00;24.70;;;15.00;;
75386;SDS011;63966;47.914;22.266;2022-10-16T05:53:03;25.17;;;16.00;;
75386;SDS011;63966;47.914;22.266;2022-10-16T05:56:08;24.10;;;14.23;;
75386;SDS011;63966;47.914;22.266;2022-10-16T05:59:13;22.02;;;14.38;;
75386;SDS011;63966;47.914;22.266;2022-10-16T06:02:16;22.35;;;14.32;;
75386;SDS011;63966;47.914;22.266;2022-10-16T06:05:20;21.00;;;13.93;;
75386;SDS011;63966;47.914;22.266;2022-10-16T06:08:23;20.23;;;14.00;;
75386;SDS011;63966;47.914;22.266;2022-10-16T06:11:28;21.52;;;13.77;;
75386;SDS011;63966;47.914;22.266;2022-10-16T06:14:32;21.00;;;14.55;;
75386;SDS011;63966;47.914;22.266;2022-10-16T06:17:35;21.95;;;14.82;;
75386;SDS011;63966;47.914;22.266;2022-10-16T06:20:39;21.03;;;14.00;;
75386;SDS011;63966;47.914;22.266;2022-10-16T06:23:42;22.97;;;13.93;;
75386;SDS011;63966;47.914;22.266;2022-10-16T06:26:48;21.73;;;13.90;;
75386;SDS011;63966;47.914;22.266;2022-10-16T06:29:51;21.40;;;14.05;;
75386;SDS011;63966;47.914;22.266;2022-10-16T06:32:55;20.45;;;13.32;;
75386;SDS011;63966;47.914;22.266;2022-10-16T06:36:05;18.10;;;12.07;;
75386;SDS011;63966;47.914;22.266;2022-10-16T06:39:10;18.60;;;12.10;;
75386;SDS011;63966;47.914;22.266;2022-10-16T06:42:13;18.63;;;12.40;;
75386;SDS011;63966;47.914;22.266;2022-10-16T06:45:17;18.67;;;11.70;;
75386;SDS011;63966;47.914;22.266;2022-10-16T06:48:22;19.75;;;12.10;;
75386;SDS011;63966;47.914;22.266;2022-10-16T06:51:26;18.97;;;11.73;;
75386;SDS011;63966;47.914;22.266;2022-10-16T06:54:29;15.67;;;11.10;;
75386;SDS011;63966;47.914;22.266;2022-10-16T06:57:43;16.95;;;11.70;;
75386;SDS011;63966;47.914;22.266;2022-10-16T07:00:54;17.40;;;11.55;;
75386;SDS011;63966;47.914;22.266;2022-10-16T07:03:59;18.20;;;11.82;;
75386;SDS011;63966;47.914;22.266;2022-10-16T07:07:03;17.57;;;11.70;;
75386;SDS011;63966;47.914;22.266;2022-10-16T07:10:10;17.53;;;11.77;;
75386;SDS011;63966;47.914;22.266;2022-10-16T07:13:14;16.85;;;10.98;;
75386;SDS011;63966;47.914;22.266;2022-10-16T07:16:18;20.73;;;12.00;;
75386;SDS011;63966;47.914;22.266;2022-10-16T07:19:23;20.13;;;11.77;;
75386;SDS011;63966;47.914;22.266;2022-10-16T07:22:31;18.33;;;11.67;;
75386;SDS011;63966;47.914;22.266;2022-10-16T07:25:35;19.13;;;12.20;;
75386;SDS011;63966;47.914;22.266;2022-10-16T07:28:38;20.25;;;13.38;;
75386;SDS011;63966;47.914;22.266;2022-10-16T07:31:42;22.75;;;13.98;;
75386;SDS011;63966;47.914;22.266;2022-10-16T07:34:46;24.38;;;14.40;;
75386;SDS011;63966;47.914;22.266;2022-10-16T07:37:49;23.07;;;14.93;;
75386;SDS011;63966;47.914;22.266;2022-10-16T07:40:56;24.40;;;15.37;;
75386;SDS011;63966;47.914;22.266;2022-10-16T07:44:01;24.35;;;15.45;;
75386;SDS011;63966;47.914;22.266;2022-10-16T07:47:05;28.67;;;17.35;;
75386;SDS011;63966;47.914;22.266;2022-10-16T07:50:10;25.17;;;15.82;;
75386;SDS011;63966;47.914;22.266;2022-10-16T07:53:13;23.13;;;15.10;;
75386;SDS011;63966;47.914;22.266;2022-10-16T07:56:18;20.87;;;13.17;;
75386;SDS011;63966;47.914;22.266;2022-10-16T07:59:21;19.70;;;12.85;;
75386;SDS011;63966;47.914;22.266;2022-10-16T08:02:25;19.45;;;12.32;;
75386;SDS011;63966;47.914;22.266;2022-10-16T08:05:28;17.25;;;10.85;;
75386;SDS011;63966;47.914;22.266;2022-10-16T08:08:34;17.77;;;10.30;;
75386;SDS011;63966;47.914;22.266;2022-10-16T08:11:37;16.90;;;10.53;;
75386;SDS011;63966;47.914;22.266;2022-10-16T08:14:40;16.33;;;9.88;;
75386;SDS011;63966;47.914;22.266;2022-10-16T08:17:55;15.50;;;8.27;;
75386;SDS011;63966;47.914;22.266;2022-10-16T08:21:03;14.45;;;9.02;;
75386;SDS011;63966;47.914;22.266;2022-10-16T08:24:07;13.33;;;8.87;;
75386;SDS011;63966;47.914;22.266;2022-10-16T08:27:11;14.23;;;8.23;;
75386;SDS011;63966;47.914;22.266;2022-10-16T08:30:15;14.80;;;8.80;;
75386;SDS011;63966;47.914;22.266;2022-10-16T08:33:19;12.45;;;7.70;;
75386;SDS011;63966;47.914;22.266;2022-10-16T08:36:22;15.40;;;7.68;;
75386;SDS011;63966;47.914;22.266;2022-10-16T08:39:26;14.03;;;7.13;;
75386;SDS011;63966;47.914;22.266;2022-10-16T08:42:34;11.47;;;6.30;;
75386;SDS011;63966;47.914;22.266;2022-10-16T08:49:20;12.52;;;7.32;;
75386;SDS011;63966;47.914;22.266;2022-10-16T08:52:29;13.00;;;6.40;;
75386;SDS011;63966;47.914;22.266;2022-10-16T08:58:48;11.83;;;6.40;;
75386;SDS011;63966;47.914;22.266;2022-10-16T09:01:59;11.98;;;6.90;;
75386;SDS011;63966;47.914;22.266;2022-10-16T09:21:53;13.57;;;6.93;;
75386;SDS011;63966;47.914;22.266;2022-10-16T09:24:59;11.30;;;7.22;;
75386;SDS011;63966;47.914;22.266;2022-10-16T09:28:13;13.27;;;7.07;;
75386;SDS011;63966;47.914;22.266;2022-10-16T09:31:20;17.23;;;9.23;;
75386;SDS011;63966;47.914;22.266;2022-10-16T09:34:30;16.55;;;9.13;;
75386;SDS011;63966;47.914;22.266;2022-10-16T09:37:38;14.40;;;7.55;;
75386;SDS011;63966;47.914;22.266;2022-10-16T09:40:45;15.65;;;8.00;;
75386;SDS011;63966;47.914;22.266;2022-10-16T09:47:11;16.27;;;8.77;;
75386;SDS011;63966;47.914;22.266;2022-10-16T09:50:26;12.40;;;7.60;;
75386;SDS011;63966;47.914;22.266;2022-10-16T09:56:47;14.20;;;7.53;;
75386;SDS011;63966;47.914;22.266;2022-10-16T09:59:54;15.97;;;7.50;;
75386;SDS011;63966;47.914;22.266;2022-10-16T10:02:59;11.23;;;6.73;;
75386;SDS011;63966;47.914;22.266;2022-10-16T10:10:01;13.25;;;7.00;;
75386;SDS011;63966;47.914;22.266;2022-10-16T10:12:57;13.57;;;6.70;;
75386;SDS011;63966;47.914;22.266;2022-10-16T10:16:01;11.03;;;6.43;;
75386;SDS011;63966;47.914;22.266;2022-10-16T10:19:08;12.43;;;6.73;;
75386;SDS011;63966;47.914;22.266;2022-10-16T10:22:22;11.63;;;6.68;;
75386;SDS011;63966;47.914;22.266;2022-10-16T10:26:14;10.57;;;6.32;;
75386;SDS011;63966;47.914;22.266;2022-10-16T10:29:16;11.25;;;6.03;;
75386;SDS011;63966;47.914;22.266;2022-10-16T10:45:42;10.48;;;6.05;;
75386;SDS011;63966;47.914;22.266;2022-10-16T10:48:58;10.10;;;6.30;;
75386;SDS011;63966;47.914;22.266;2022-10-16T10:55:58;10.60;;;6.15;;
75386;SDS011;63966;47.914;22.266;2022-10-16T10:59:25;10.95;;;6.30;;
75386;SDS011;63966;47.914;22.266;2022-10-16T11:02:50;16.38;;;6.03;;
75386;SDS011;63966;47.914;22.266;2022-10-16T11:06:07;11.27;;;6.27;;
75386;SDS011;63966;47.914;22.266;2022-10-16T11:09:27;11.47;;;6.30;;
75386;SDS011;63966;47.914;22.266;2022-10-16T11:12:39;11.85;;;6.22;;
75386;SDS011;63966;47.914;22.266;2022-10-16T11:15:48;12.02;;;6.20;;
75386;SDS011;63966;47.914;22.266;2022-10-16T11:18:59;10.35;;;6.22;;
75386;SDS011;63966;47.914;22.266;2022-10-16T11:22:32;12.00;;;5.83;;
75386;SDS011;63966;47.914;22.266;2022-10-16T11:25:40;10.47;;;5.87;;
75386;SDS011;63966;47.914;22.266;2022-10-16T11:28:46;10.73;;;5.60;;
75386;SDS011;63966;47.914;22.266;2022-10-16T11:31:53;10.98;;;6.15;;
75386;SDS011;63966;47.914;22.266;2022-10-16T11:35:15;9.15;;;5.40;;
75386;SDS011;63966;47.914;22.266;2022-10-16T11:55:22;12.43;;;5.93;;
75386;SDS011;63966;47.914;22.266;2022-10-16T12:05:18;12.50;;;6.20;;
75386;SDS011;63966;47.914;22.266;2022-10-16T12:08:23;14.20;;;6.05;;
75386;SDS011;63966;47.914;22.266;2022-10-16T12:14:39;11.43;;;5.90;;
75386;SDS011;63966;47.914;22.266;2022-10-16T12:18:03;10.05;;;5.50;;
75386;SDS011;63966;47.914;22.266;2022-10-16T12:21:06;10.40;;;6.18;;
75386;SDS011;63966;47.914;22.266;2022-10-16T12:24:20;12.20;;;6.03;;
75386;SDS011;63966;47.914;22.266;2022-10-16T12:27:44;11.13;;;5.73;;
75386;SDS011;63966;47.914;22.266;2022-10-16T12:30:56;12.00;;;5.47;;
75386;SDS011;63966;47.914;22.266;2022-10-16T12:34:05;10.02;;;5.45;;
75386;SDS011;63966;47.914;22.266;2022-10-16T12:37:13;11.35;;;5.63;;
75386;SDS011;63966;47.914;22.266;2022-10-16T12:43:37;10.00;;;5.30;;
75386;SDS011;63966;47.914;22.266;2022-10-16T12:46:44;9.50;;;5.40;;
75386;SDS011;63966;47.914;22.266;2022-10-16T12:49:48;10.07;;;5.72;;
75386;SDS011;63966;47.914;22.266;2022-10-16T12:52:54;11.88;;;6.38;;
75386;SDS011;63966;47.914;22.266;2022-10-16T12:56:01;10.07;;;5.18;;
75386;SDS011;63966;47.914;22.266;2022-10-16T13:20:16;9.63;;;5.20;;
75386;SDS011;63966;47.914;22.266;2022-10-16T13:23:30;10.35;;;5.25;;
75386;SDS011;63966;47.914;22.266;2022-10-16T13:29:58;10.07;;;5.25;;
75386;SDS011;63966;47.914;22.266;2022-10-16T13:33:37;10.97;;;5.20;;
75386;SDS011;63966;47.914;22.266;2022-10-16T13:36:47;8.33;;;5.37;;
75386;SDS011;63966;47.914;22.266;2022-10-16T13:43:31;12.55;;;6.30;;
75386;SDS011;63966;47.914;22.266;2022-10-16T13:46:43;12.57;;;5.70;;
75386;SDS011;63966;47.914;22.266;2022-10-16T13:49:47;8.83;;;5.30;;
75386;SDS011;63966;47.914;22.266;2022-10-16T13:53:15;13.03;;;5.77;;
75386;SDS011;63966;47.914;22.266;2022-10-16T13:56:19;9.35;;;5.68;;
75386;SDS011;63966;47.914;22.266;2022-10-16T13:59:34;10.02;;;4.97;;
75386;SDS011;63966;47.914;22.266;2022-10-16T14:02:42;10.20;;;4.97;;
75386;SDS011;63966;47.914;22.266;2022-10-16T14:05:50;8.00;;;5.07;;
75386;SDS011;63966;47.914;22.266;2022-10-16T14:09:06;11.50;;;4.60;;
75386;SDS011;63966;47.914;22.266;2022-10-16T14:12:16;11.45;;;5.47;;
75386;SDS011;63966;47.914;22.266;2022-10-16T14:15:23;8.57;;;4.70;;
75386;SDS011;63966;47.914;22.266;2022-10-16T14:18:26;10.07;;;5.38;;
75386;SDS011;63966;47.914;22.266;2022-10-16T14:21:36;9.67;;;4.87;;
75386;SDS011;63966;47.914;22.266;2022-10-16T14:24:42;8.07;;;4.67;;
75386;SDS011;63966;47.914;22.266;2022-10-16T14:27:56;10.85;;;5.70;;
75386;SDS011;63966;47.914;22.266;2022-10-16T14:34:35;9.63;;;4.93;;
75386;SDS011;63966;47.914;22.266;2022-10-16T14:37:42;12.23;;;5.27;;
75386;SDS011;63966;47.914;22.266;2022-10-16T14:40:47;8.50;;;5.20;;
75386;SDS011;63966;47.914;22.266;2022-10-16T14:43:53;11.32;;;5.90;;
75386;SDS011;63966;47.914;22.266;2022-10-16T14:47:06;8.98;;;5.07;;
75386;SDS011;63966;47.914;22.266;2022-10-16T14:50:15;9.80;;;6.03;;
75386;SDS011;63966;47.914;22.266;2022-10-16T14:53:19;9.80;;;5.10;;
75386;SDS011;63966;47.914;22.266;2022-10-16T14:56:23;10.50;;;5.27;;
75386;SDS011;63966;47.914;22.266;2022-10-16T14:59:35;14.52;;;5.72;;
75386;SDS011;63966;47.914;22.266;2022-10-16T15:02:41;12.52;;;7.13;;
75386;SDS011;63966;47.914;22.266;2022-10-16T15:05:45;14.55;;;7.80;;
75386;SDS011;63966;47.914;22.266;2022-10-16T15:08:48;15.80;;;9.00;;
75386;SDS011;63966;47.914;22.266;2022-10-16T15:11:51;16.50;;;10.90;;
75386;SDS011;63966;47.914;22.266;2022-10-16T15:14:55;20.13;;;11.77;;
75386;SDS011;63966;47.914;22.266;2022-10-16T15:17:58;15.35;;;10.40;;
75386;SDS011;63966;47.914;22.266;2022-10-16T15:21:03;13.38;;;8.38;;
75386;SDS011;63966;47.914;22.266;2022-10-16T15:24:08;13.70;;;8.17;;
75386;SDS011;63966;47.914;22.266;2022-10-16T15:27:21;17.67;;;10.00;;
75386;SDS011;63966;47.914;22.266;2022-10-16T15:30:25;15.82;;;9.20;;
75386;SDS011;63966;47.914;22.266;2022-10-16T15:33:29;13.52;;;9.00;;
75386;SDS011;63966;47.914;22.266;2022-10-16T15:36:41;45.40;;;28.27;;
75386;SDS011;63966;47.914;22.266;2022-10-16T15:39:44;45.80;;;26.90;;
75386;SDS011;63966;47.914;22.266;2022-10-16T15:42:48;48.67;;;27.70;;
75386;SDS011;63966;47.914;22.266;2022-10-16T15:46:02;59.60;;;35.25;;
75386;SDS011;63966;47.914;22.266;2022-10-16T15:49:08;40.83;;;25.27;;
75386;SDS011;63966;47.914;22.266;2022-10-16T15:52:12;48.55;;;28.75;;
75386;SDS011;63966;47.914;22.266;2022-10-16T15:55:15;52.27;;;27.20;;
75386;SDS011;63966;47.914;22.266;2022-10-16T15:58:21;71.70;;;31.33;;
75386;SDS011;63966;47.914;22.266;2022-10-16T16:01:24;57.50;;;26.20;;
75386;SDS011;63966;47.914;22.266;2022-10-16T16:04:31;50.25;;;24.42;;
75386;SDS011;63966;47.914;22.266;2022-10-16T16:07:50;61.95;;;26.58;;
75386;SDS011;63966;47.914;22.266;2022-10-16T16:11:01;53.93;;;24.17;;
75386;SDS011;63966;47.914;22.266;2022-10-16T16:14:10;29.60;;;15.10;;
75386;SDS011;63966;47.914;22.266;2022-10-16T16:17:15;25.42;;;13.00;;
75386;SDS011;63966;47.914;22.266;2022-10-16T16:20:19;84.57;;;41.08;;
75386;SDS011;63966;47.914;22.266;2022-10-16T16:23:22;94.40;;;45.53;;
75386;SDS011;63966;47.914;22.266;2022-10-16T16:26:29;86.00;;;41.33;;
75386;SDS011;63966;47.914;22.266;2022-10-16T16:29:38;68.70;;;32.70;;
75386;SDS011;63966;47.914;22.266;2022-10-16T16:32:41;59.55;;;28.33;;
75386;SDS011;63966;47.914;22.266;2022-10-16T16:35:46;60.70;;;29.00;;
75386;SDS011;63966;47.914;22.266;2022-10-16T16:38:49;68.22;;;35.22;;
75386;SDS011;63966;47.914;22.266;2022-10-16T16:41:54;46.80;;;24.13;;
75386;SDS011;63966;47.914;22.266;2022-10-16T16:45:00;49.13;;;23.17;;
75386;SDS011;63966;47.914;22.266;2022-10-16T16:48:03;41.97;;;21.30;;
75386;SDS011;63966;47.914;22.266;2022-10-16T16:51:10;52.35;;;25.33;;
75386;SDS011;63966;47.914;22.266;2022-10-16T16:54:18;46.92;;;21.27;;
75386;SDS011;63966;47.914;22.266;2022-10-16T16:57:22;55.10;;;23.03;;
75386;SDS011;63966;47.914;22.266;2022-10-16T17:00:26;47.93;;;21.03;;
75386;SDS011;63966;47.914;22.266;2022-10-16T17:03:30;203.48;;;75.05;;
75386;SDS011;63966;47.914;22.266;2022-10-16T17:06:35;107.65;;;43.78;;
75386;SDS011;63966;47.914;22.266;2022-10-16T17:09:39;97.38;;;42.15;;
75386;SDS011;63966;47.914;22.266;2022-10-16T17:12:42;91.07;;;37.37;;
75386;SDS011;63966;47.914;22.266;2022-10-16T17:15:46;80.93;;;37.00;;
75386;SDS011;63966;47.914;22.266;2022-10-16T17:18:50;80.90;;;38.08;;
75386;SDS011;63966;47.914;22.266;2022-10-16T17:21:55;95.38;;;42.05;;
75386;SDS011;63966;47.914;22.266;2022-10-16T17:24:58;81.80;;;39.00;;
75386;SDS011;63966;47.914;22.266;2022-10-16T17:28:04;74.03;;;36.60;;
75386;SDS011;63966;47.914;22.266;2022-10-16T17:31:09;84.00;;;39.63;;
75386;SDS011;63966;47.914;22.266;2022-10-16T17:34:17;96.82;;;46.17;;
75386;SDS011;63966;47.914;22.266;2022-10-16T17:37:21;89.78;;;42.95;;
75386;SDS011;63966;47.914;22.266;2022-10-16T17:40:25;89.78;;;45.65;;
75386;SDS011;63966;47.914;22.266;2022-10-16T17:43:28;86.73;;;43.30;;
75386;SDS011;63966;47.914;22.266;2022-10-16T17:46:32;87.23;;;43.27;;
75386;SDS011;63966;47.914;22.266;2022-10-16T17:49:42;127.65;;;60.65;;
75386;SDS011;63966;47.914;22.266;2022-10-16T17:52:45;93.35;;;47.33;;
75386;SDS011;63966;47.914;22.266;2022-10-16T17:55:49;66.47;;;33.72;;
75386;SDS011;63966;47.914;22.266;2022-10-16T17:58:59;66.07;;;32.23;;
75386;SDS011;63966;47.914;22.266;2022-10-16T18:02:03;77.10;;;35.03;;
75386;SDS011;63966;47.914;22.266;2022-10-16T18:05:07;72.18;;;34.67;;
75386;SDS011;63966;47.914;22.266;2022-10-16T18:08:10;66.07;;;31.25;;
75386;SDS011;63966;47.914;22.266;2022-10-16T18:11:14;68.78;;;35.97;;
75386;SDS011;63966;47.914;22.266;2022-10-16T18:14:17;69.73;;;35.20;;
75386;SDS011;63966;47.914;22.266;2022-10-16T18:17:21;65.37;;;30.57;;
75386;SDS011;63966;47.914;22.266;2022-10-16T18:20:24;63.72;;;29.52;;
75386;SDS011;63966;47.914;22.266;2022-10-16T18:23:28;56.95;;;28.83;;
75386;SDS011;63966;47.914;22.266;2022-10-16T18:26:31;62.47;;;29.50;;
75386;SDS011;63966;47.914;22.266;2022-10-16T18:29:34;70.30;;;32.77;;
75386;SDS011;63966;47.914;22.266;2022-10-16T18:32:39;62.93;;;30.60;;
75386;SDS011;63966;47.914;22.266;2022-10-16T18:35:42;64.05;;;29.55;;
75386;SDS011;63966;47.914;22.266;2022-10-16T18:38:46;54.60;;;26.25;;
75386;SDS011;63966;47.914;22.266;2022-10-16T18:41:50;56.78;;;26.75;;
75386;SDS011;63966;47.914;22.266;2022-10-16T18:44:56;50.90;;;25.83;;
75386;SDS011;63966;47.914;22.266;2022-10-16T18:47:59;61.63;;;28.83;;
75386;SDS011;63966;47.914;22.266;2022-10-16T18:54:20;66.70;;;30.98;;
75386;SDS011;63966;47.914;22.266;2022-10-16T19:00:45;74.67;;;31.20;;
75386;SDS011;63966;47.914;22.266;2022-10-16T19:03:52;82.23;;;33.67;;
75386;SDS011;63966;47.914;22.266;2022-10-16T19:06:57;90.22;;;34.60;;
75386;SDS011;63966;47.914;22.266;2022-10-16T19:10:01;101.85;;;37.00;;
75386;SDS011;63966;47.914;22.266;2022-10-16T19:13:05;95.40;;;36.13;;
75386;SDS011;63966;47.914;22.266;2022-10-16T19:16:16;84.37;;;31.53;;
75386;SDS011;63966;47.914;22.266;2022-10-16T19:19:22;60.83;;;27.50;;
75386;SDS011;63966;47.914;22.266;2022-10-16T19:22:26;47.75;;;22.02;;
75386;SDS011;63966;47.914;22.266;2022-10-16T19:25:42;47.92;;;21.45;;
75386;SDS011;63966;47.914;22.266;2022-10-16T19:28:45;48.65;;;21.23;;
75386;SDS011;63966;47.914;22.266;2022-10-16T19:31:49;51.63;;;20.63;;
75386;SDS011;63966;47.914;22.266;2022-10-16T19:34:52;49.37;;;23.10;;
75386;SDS011;63966;47.914;22.266;2022-10-16T19:37:58;53.95;;;26.67;;
75386;SDS011;63966;47.914;22.266;2022-10-16T19:41:03;54.67;;;25.88;;
75386;SDS011;63966;47.914;22.266;2022-10-16T19:44:09;58.28;;;25.48;;
75386;SDS011;63966;47.914;22.266;2022-10-16T19:47:14;51.80;;;21.63;;
75386;SDS011;63966;47.914;22.266;2022-10-16T19:50:22;42.33;;;20.80;;
75386;SDS011;63966;47.914;22.266;2022-10-16T19:53:25;47.17;;;22.98;;
75386;SDS011;63966;47.914;22.266;2022-10-16T19:56:30;51.22;;;24.27;;
75386;SDS011;63966;47.914;22.266;2022-10-16T19:59:35;52.78;;;21.67;;
75386;SDS011;63966;47.914;22.266;2022-10-16T20:02:41;48.30;;;22.10;;
75386;SDS011;63966;47.914;22.266;2022-10-16T20:05:51;48.63;;;21.97;;
75386;SDS011;63966;47.914;22.266;2022-10-16T20:08:56;46.38;;;22.05;;
75386;SDS011;63966;47.914;22.266;2022-10-16T20:11:59;43.70;;;21.08;;
75386;SDS011;63966;47.914;22.266;2022-10-16T20:15:03;49.38;;;21.48;;
75386;SDS011;63966;47.914;22.266;2022-10-16T20:18:07;51.00;;;22.27;;
75386;SDS011;63966;47.914;22.266;2022-10-16T20:21:11;43.57;;;21.70;;